createdAt,value
2018-12-23T00:00:43.947Z,15.93
2018-12-23T00:03:11.301Z,13.87
2018-12-23T00:05:38.548Z,14.53
2018-12-23T00:08:05.856Z,14.17
2018-12-23T00:10:33.193Z,13.23
2018-12-23T00:13:00.443Z,15.13
2018-12-23T00:15:27.737Z,14.50
2018-12-23T00:17:54.918Z,13.37
2018-12-23T00:20:22.136Z,13.67
2018-12-23T00:22:49.523Z,13.27
2018-12-23T00:25:16.721Z,14.30
2018-12-23T00:27:43.952Z,13.33
2018-12-23T00:30:11.248Z,12.77
2018-12-23T00:32:38.444Z,13.83
2018-12-23T00:35:05.865Z,13.43
2018-12-23T00:37:33.292Z,13.43
2018-12-23T00:40:00.502Z,13.67
2018-12-23T00:42:27.948Z,13.00
2018-12-23T00:44:55.189Z,14.07
2018-12-23T00:47:22.465Z,13.87
2018-12-23T00:49:49.689Z,14.47
2018-12-23T00:52:16.923Z,14.57
2018-12-23T00:54:44.151Z,14.67
2018-12-23T00:57:11.355Z,14.23
2018-12-23T00:59:38.661Z,13.97
2018-12-23T01:02:05.864Z,14.00
2018-12-23T01:04:33.211Z,15.17
2018-12-23T01:07:00.533Z,14.87
2018-12-23T01:09:28.015Z,16.33
2018-12-23T01:11:55.228Z,15.23
2018-12-23T01:14:22.432Z,14.50
2018-12-23T01:16:49.757Z,14.40
2018-12-23T01:19:17.128Z,15.77
2018-12-23T01:21:44.403Z,14.17
2018-12-23T01:24:11.599Z,14.23
2018-12-23T01:26:38.837Z,14.63
2018-12-23T01:29:06.030Z,14.90
2018-12-23T01:31:33.354Z,14.30
2018-12-23T01:34:00.552Z,14.03
2018-12-23T01:36:27.725Z,15.37
2018-12-23T01:38:55.056Z,13.67
2018-12-23T01:41:22.316Z,15.03
2018-12-23T01:43:49.511Z,14.33
2018-12-23T01:46:16.711Z,15.13
2018-12-23T01:48:43.917Z,14.97
2018-12-23T01:51:11.317Z,14.80
2018-12-23T01:53:38.628Z,15.50
2018-12-23T01:56:05.850Z,15.13
2018-12-23T01:58:33.101Z,15.33
2018-12-23T02:01:00.415Z,14.77
2018-12-23T02:03:27.613Z,14.47
2018-12-23T02:05:54.918Z,14.80
2018-12-23T02:08:22.112Z,14.30
2018-12-23T02:10:49.346Z,14.10
2018-12-23T02:13:16.520Z,14.23
2018-12-23T02:15:43.707Z,13.27
2018-12-23T02:18:10.961Z,14.10
2018-12-23T02:20:38.178Z,13.50
2018-12-23T02:23:05.359Z,12.57
2018-12-23T02:25:32.592Z,12.90
2018-12-23T02:27:59.793Z,12.90
2018-12-23T02:30:27.078Z,13.60
2018-12-23T02:32:54.307Z,13.77
2018-12-23T02:35:21.481Z,12.97
2018-12-23T02:37:48.684Z,13.37
2018-12-23T02:40:15.899Z,13.10
2018-12-23T02:42:43.090Z,13.17
2018-12-23T02:45:10.285Z,13.30
2018-12-23T02:47:37.534Z,13.83
2018-12-23T02:50:04.913Z,12.37
2018-12-23T02:52:32.221Z,13.40
2018-12-23T02:54:59.453Z,12.77
2018-12-23T02:57:26.644Z,13.53
2018-12-23T02:59:53.935Z,12.63
2018-12-23T03:02:21.160Z,13.73
2018-12-23T03:04:48.340Z,14.10
2018-12-23T03:07:15.505Z,15.10
2018-12-23T03:09:42.691Z,13.13
2018-12-23T03:12:10.028Z,13.97
2018-12-23T03:14:37.210Z,11.87
2018-12-23T03:17:04.671Z,12.47
2018-12-23T03:19:31.980Z,12.07
2018-12-23T03:21:59.160Z,12.27
2018-12-23T03:24:26.376Z,12.13
2018-12-23T03:26:53.578Z,12.50
2018-12-23T03:29:20.766Z,11.90
2018-12-23T03:31:47.985Z,11.40
2018-12-23T03:34:15.301Z,12.30
2018-12-23T03:36:42.485Z,12.53
2018-12-23T03:39:09.709Z,12.27
2018-12-23T03:41:36.994Z,11.87
2018-12-23T03:44:04.209Z,13.07
2018-12-23T03:46:31.465Z,12.30
2018-12-23T03:48:58.666Z,10.70
2018-12-23T03:51:25.883Z,11.30
2018-12-23T03:53:53.093Z,10.93
2018-12-23T03:56:20.263Z,11.47
2018-12-23T03:58:47.569Z,9.87
2018-12-23T04:01:14.912Z,10.13
2018-12-23T04:03:42.088Z,10.37
2018-12-23T04:06:09.245Z,9.47
2018-12-23T04:08:36.485Z,10.00
2018-12-23T04:11:03.784Z,10.63
2018-12-23T04:13:30.950Z,9.83
2018-12-23T04:15:58.196Z,10.53
2018-12-23T04:18:25.373Z,9.67
2018-12-23T04:20:52.533Z,10.10
2018-12-23T04:23:19.753Z,10.67
2018-12-23T04:25:46.926Z,10.37
2018-12-23T04:28:14.120Z,10.00
2018-12-23T04:30:41.385Z,9.80
2018-12-23T04:33:08.577Z,11.33
2018-12-23T04:35:35.761Z,11.70
2018-12-23T04:38:03.085Z,10.37
2018-12-23T04:40:30.272Z,12.73
2018-12-23T04:42:57.461Z,11.50
2018-12-23T04:45:24.790Z,11.67
2018-12-23T04:47:52.101Z,10.57
2018-12-23T04:50:19.289Z,11.33
2018-12-23T04:52:46.488Z,11.70
2018-12-23T04:55:13.679Z,11.60
2018-12-23T04:57:40.872Z,12.90
2018-12-23T05:00:08.329Z,12.40
2018-12-23T05:02:35.667Z,11.87
2018-12-23T05:05:02.975Z,13.37
2018-12-23T05:07:30.212Z,13.73
2018-12-23T05:09:57.528Z,13.03
2018-12-23T05:12:24.718Z,12.43
2018-12-23T05:14:51.924Z,13.10
2018-12-23T05:17:19.125Z,14.83
2018-12-23T05:19:46.284Z,14.00
2018-12-23T05:22:13.494Z,13.03
2018-12-23T05:24:40.676Z,12.80
2018-12-23T05:27:07.887Z,12.53
2018-12-23T05:29:35.116Z,13.07
2018-12-23T05:32:02.308Z,11.80
2018-12-23T05:34:29.487Z,12.27
2018-12-23T05:36:56.818Z,12.20
2018-12-23T05:39:24.004Z,13.33
2018-12-23T05:41:51.200Z,13.93
2018-12-23T05:44:18.410Z,13.20
2018-12-23T05:46:45.591Z,14.23
2018-12-23T05:49:12.769Z,15.13
2018-12-23T05:51:40.032Z,14.67
2018-12-23T05:54:07.327Z,15.13
2018-12-23T05:56:34.498Z,15.30
2018-12-23T05:59:01.691Z,15.03
2018-12-23T06:01:29.007Z,14.20
2018-12-23T06:03:56.188Z,14.17
2018-12-23T06:06:23.388Z,15.83
2018-12-23T06:08:50.558Z,15.43
2018-12-23T06:11:17.762Z,15.27
2018-12-23T06:13:44.972Z,15.20
2018-12-23T06:16:12.195Z,16.13
2018-12-23T06:18:39.365Z,16.03
2018-12-23T06:21:06.592Z,14.90
2018-12-23T06:23:33.801Z,17.87
2018-12-23T06:26:01.002Z,14.10
2018-12-23T06:28:28.202Z,16.47
2018-12-23T06:30:55.404Z,15.50
2018-12-23T06:33:22.596Z,13.63
2018-12-23T06:35:49.818Z,11.20
2018-12-23T06:38:17.021Z,13.00
2018-12-23T06:40:44.218Z,11.37
2018-12-23T06:43:11.556Z,11.93
2018-12-23T06:45:38.775Z,12.77
2018-12-23T06:48:05.990Z,12.03
2018-12-23T06:50:33.222Z,13.83
2018-12-23T06:53:00.418Z,13.27
2018-12-23T06:55:27.837Z,14.77
2018-12-23T06:57:55.114Z,14.90
2018-12-23T07:00:22.338Z,15.17
2018-12-23T07:02:49.681Z,14.90
2018-12-23T07:05:16.885Z,13.97
2018-12-23T07:07:44.077Z,14.07
2018-12-23T07:10:11.298Z,14.80
2018-12-23T07:12:38.531Z,16.13
2018-12-23T07:15:05.961Z,16.57
2018-12-23T07:17:33.188Z,17.13
2018-12-23T07:20:00.516Z,16.63
2018-12-23T07:22:27.745Z,16.93
2018-12-23T07:24:55.053Z,17.07
2018-12-23T07:27:22.284Z,18.47
2018-12-23T07:29:49.481Z,16.63
2018-12-23T07:32:16.692Z,17.20
2018-12-23T07:34:43.937Z,16.20
2018-12-23T07:37:11.139Z,17.80
2018-12-23T07:39:38.472Z,16.33
2018-12-23T07:42:05.738Z,16.60
2018-12-23T07:44:32.947Z,17.57
2018-12-23T07:47:00.165Z,16.63
2018-12-23T07:49:27.395Z,16.63
2018-12-23T07:51:54.594Z,15.60
2018-12-23T07:54:21.788Z,15.67
2018-12-23T07:56:49.029Z,16.80
2018-12-23T07:59:16.204Z,14.97
2018-12-23T08:01:43.365Z,18.13
2018-12-23T08:04:10.628Z,16.77
2018-12-23T08:06:37.873Z,15.87
2018-12-23T08:09:06.027Z,15.43
2018-12-23T08:11:33.298Z,16.17
2018-12-23T08:14:00.500Z,16.00
2018-12-23T08:16:27.715Z,15.40
2018-12-23T08:18:54.958Z,15.13
2018-12-23T08:21:22.154Z,17.27
2018-12-23T08:23:49.415Z,16.80
2018-12-23T08:26:16.665Z,15.93
2018-12-23T08:28:43.850Z,17.40
2018-12-23T08:31:11.060Z,17.50
2018-12-23T08:33:38.301Z,16.23
2018-12-23T08:36:05.544Z,18.03
2018-12-23T08:38:32.769Z,17.27
2018-12-23T08:41:00.116Z,18.57
2018-12-23T08:43:27.320Z,17.77
2018-12-23T08:45:54.520Z,17.73
2018-12-23T08:48:22.015Z,15.43
2018-12-23T08:50:49.233Z,16.47
2018-12-23T08:53:16.472Z,18.30
2018-12-23T08:55:43.697Z,16.40
2018-12-23T08:58:10.884Z,17.90
2018-12-23T09:00:38.099Z,17.43
2018-12-23T09:03:06.236Z,15.63
2018-12-23T09:05:33.664Z,14.70
2018-12-23T09:08:00.884Z,13.77
2018-12-23T09:10:28.124Z,13.57
2018-12-23T09:12:55.333Z,13.37
2018-12-23T09:15:22.525Z,12.20
2018-12-23T09:17:49.777Z,11.03
2018-12-23T09:20:16.998Z,11.80
2018-12-23T09:22:44.222Z,12.43
2018-12-23T09:25:11.462Z,10.93
2018-12-23T09:27:38.752Z,11.53
2018-12-23T09:30:06.315Z,13.20
2018-12-23T09:32:33.556Z,11.70
2018-12-23T09:35:00.753Z,11.53
2018-12-23T09:37:27.938Z,11.77
2018-12-23T09:39:55.405Z,10.47
2018-12-23T09:42:22.836Z,12.07
2018-12-23T09:44:50.046Z,12.43
2018-12-23T09:47:17.276Z,11.83
2018-12-23T09:49:44.491Z,13.37
2018-12-23T09:52:11.806Z,12.20
2018-12-23T09:54:39.133Z,11.97
2018-12-23T09:57:06.385Z,13.13
2018-12-23T09:59:33.603Z,13.10
2018-12-23T10:02:00.844Z,12.90
2018-12-23T10:04:28.206Z,10.20
2018-12-23T10:06:55.449Z,14.67
2018-12-23T10:09:22.697Z,26.37
2018-12-23T10:11:49.916Z,22.20
2018-12-23T10:14:17.161Z,19.97
2018-12-23T10:16:44.480Z,23.10
2018-12-23T10:19:11.691Z,21.70
2018-12-23T10:21:38.889Z,12.83
2018-12-23T10:24:06.270Z,10.77
2018-12-23T10:26:33.458Z,12.03
2018-12-23T10:29:00.646Z,10.63
2018-12-23T10:31:27.868Z,9.83
2018-12-23T10:33:55.476Z,12.47
2018-12-23T10:36:22.685Z,11.53
2018-12-23T10:38:49.930Z,9.67
2018-12-23T10:41:17.424Z,15.00
2018-12-23T10:43:44.896Z,23.10
2018-12-23T10:46:12.173Z,15.43
2018-12-23T10:48:39.375Z,10.43
2018-12-23T10:51:06.601Z,10.40
2018-12-23T10:53:33.964Z,10.73
2018-12-23T10:56:01.405Z,13.13
2018-12-23T10:58:28.661Z,21.60
2018-12-23T11:00:55.915Z,23.97
2018-12-23T11:03:23.151Z,17.33
2018-12-23T11:05:50.345Z,10.83
2018-12-23T11:08:17.612Z,9.10
2018-12-23T11:10:44.848Z,9.87
2018-12-23T11:13:12.176Z,10.97
2018-12-23T11:15:39.412Z,13.63
2018-12-23T11:18:06.646Z,25.00
2018-12-23T11:20:33.855Z,14.97
2018-12-23T11:23:01.129Z,9.43
2018-12-23T11:25:28.354Z,8.57
2018-12-23T11:27:55.551Z,9.13
2018-12-23T11:30:22.827Z,7.80
2018-12-23T11:32:50.041Z,8.30
2018-12-23T11:35:17.293Z,6.60
2018-12-23T11:37:44.528Z,8.33
2018-12-23T11:40:11.868Z,5.60
2018-12-23T11:42:39.068Z,6.63
2018-12-23T11:45:06.416Z,5.67
2018-12-23T11:47:33.734Z,6.17
2018-12-23T11:50:00.956Z,7.80
2018-12-23T11:52:28.210Z,7.43
2018-12-23T11:54:55.436Z,9.10
2018-12-23T11:57:22.745Z,11.50
2018-12-23T11:59:49.978Z,12.93
2018-12-23T12:02:17.193Z,16.20
2018-12-23T12:04:44.426Z,14.17
2018-12-23T12:07:11.665Z,11.00
2018-12-23T12:09:38.861Z,11.23
2018-12-23T12:12:06.123Z,13.40
2018-12-23T12:14:33.404Z,10.93
2018-12-23T12:17:00.676Z,7.30
2018-12-23T12:19:27.857Z,9.27
2018-12-23T12:21:55.171Z,12.13
2018-12-23T12:24:22.374Z,13.00
2018-12-23T12:26:49.590Z,7.30
2018-12-23T12:29:16.846Z,5.17
2018-12-23T12:31:44.064Z,5.97
2018-12-23T12:34:11.295Z,6.87
2018-12-23T12:36:38.573Z,9.67
2018-12-23T12:39:07.143Z,11.20
2018-12-23T12:41:34.444Z,10.60
2018-12-23T12:44:01.866Z,14.50
2018-12-23T12:46:29.090Z,18.10
2018-12-23T12:48:56.305Z,16.37
2018-12-23T12:51:23.568Z,16.43
2018-12-23T12:53:50.795Z,16.57
2018-12-23T12:56:17.974Z,16.07
2018-12-23T12:58:45.200Z,16.53
2018-12-23T13:01:12.426Z,14.27
2018-12-23T13:03:39.637Z,9.43
2018-12-23T13:06:06.847Z,9.60
2018-12-23T13:08:34.050Z,10.40
2018-12-23T13:11:01.252Z,9.70
2018-12-23T13:13:28.483Z,6.13
2018-12-23T13:15:55.656Z,4.63
2018-12-23T13:18:22.837Z,5.10
2018-12-23T13:20:50.093Z,4.27
2018-12-23T13:23:17.304Z,4.60
2018-12-23T13:25:44.611Z,4.87
2018-12-23T13:28:11.948Z,4.40
2018-12-23T13:30:39.137Z,3.90
2018-12-23T13:33:07.342Z,4.10
2018-12-23T13:35:34.579Z,3.80
2018-12-23T13:38:01.809Z,4.03
2018-12-23T13:40:42.233Z,4.30
2018-12-23T13:43:17.440Z,4.43
2018-12-23T13:45:56.326Z,4.50
2018-12-23T13:48:55.193Z,4.30
2018-12-23T13:54:13.278Z,4.23
2018-12-23T13:57:57.916Z,5.30
2018-12-23T14:00:53.400Z,7.83
2018-12-23T14:03:29.643Z,9.93
2018-12-23T14:06:38.517Z,10.60
2018-12-23T14:09:17.360Z,19.13
2018-12-23T14:11:55.189Z,15.40
2018-12-23T14:14:22.719Z,12.43
2018-12-23T14:16:49.899Z,11.50
2018-12-23T14:19:17.487Z,15.00
2018-12-23T14:21:44.695Z,12.00
2018-12-23T14:24:12.026Z,10.53
2018-12-23T14:26:39.268Z,7.57
2018-12-23T14:29:06.478Z,5.07
2018-12-23T14:31:33.685Z,4.53
2018-12-23T14:34:00.902Z,4.43
2018-12-23T14:36:28.097Z,4.93
2018-12-23T14:38:55.632Z,4.07
2018-12-23T14:41:23.111Z,4.27
2018-12-23T14:43:50.289Z,4.43
2018-12-23T14:46:17.488Z,4.10
2018-12-23T14:48:44.777Z,4.30
2018-12-23T14:51:11.969Z,4.27
2018-12-23T14:53:39.224Z,4.10
2018-12-23T14:56:06.495Z,3.50
2018-12-23T14:58:34.168Z,4.87
2018-12-23T15:01:01.385Z,4.63
2018-12-23T15:03:29.049Z,4.83
2018-12-23T15:05:56.314Z,4.17
2018-12-23T15:08:23.529Z,4.63
2018-12-23T15:10:50.809Z,4.90
2018-12-23T15:13:18.143Z,4.80
2018-12-23T15:15:45.495Z,5.00
2018-12-23T15:18:12.742Z,5.47
2018-12-23T15:20:39.979Z,4.70
2018-12-23T15:23:10.820Z,5.80
2018-12-23T15:25:36.488Z,5.07
2018-12-23T15:28:03.721Z,5.50
2018-12-23T15:30:30.929Z,5.80
2018-12-23T15:32:58.173Z,6.50
2018-12-23T15:35:25.385Z,6.80
2018-12-23T15:37:52.584Z,6.07
2018-12-23T15:40:19.816Z,7.00
2018-12-23T15:42:47.168Z,6.33
2018-12-23T15:45:14.402Z,6.47
2018-12-23T15:47:41.632Z,7.30
2018-12-23T15:50:08.894Z,7.47
2018-12-23T15:52:36.105Z,4.93
2018-12-23T15:55:03.654Z,6.33
2018-12-23T15:57:30.893Z,6.33
2018-12-23T15:59:58.109Z,5.97
2018-12-23T16:02:25.331Z,6.70
2018-12-23T16:04:54.621Z,6.80
2018-12-23T16:07:21.792Z,6.93
2018-12-23T16:09:51.279Z,6.30
2018-12-23T16:12:18.278Z,6.43
2018-12-23T16:14:45.533Z,6.43
2018-12-23T16:17:12.784Z,6.60
2018-12-23T16:19:40.030Z,7.10
2018-12-23T16:22:07.285Z,6.53
2018-12-23T16:24:34.513Z,6.20
2018-12-23T16:27:01.753Z,5.77
2018-12-23T16:29:29.043Z,5.43
2018-12-23T16:31:56.326Z,5.33
2018-12-23T16:34:23.517Z,5.93
2018-12-23T16:36:50.841Z,5.10
2018-12-23T16:39:18.050Z,5.00
2018-12-23T16:41:45.258Z,4.73
2018-12-23T16:44:12.452Z,4.57
2018-12-23T16:46:39.667Z,5.13
2018-12-23T16:49:06.932Z,5.23
2018-12-23T16:51:34.156Z,5.47
2018-12-23T16:54:01.401Z,5.33
2018-12-23T16:56:28.617Z,5.50
2018-12-23T16:58:55.819Z,6.00
2018-12-23T17:01:23.068Z,4.97
2018-12-23T17:03:50.277Z,5.67
2018-12-23T17:06:17.658Z,5.77
2018-12-23T17:08:44.957Z,5.70
2018-12-23T17:11:12.260Z,5.30
2018-12-23T17:13:39.577Z,5.87
2018-12-23T17:16:07.022Z,6.65
2018-12-23T17:18:34.260Z,6.70
2018-12-23T17:21:01.480Z,6.10
2018-12-23T17:23:28.742Z,5.70
2018-12-23T17:25:55.969Z,5.23
2018-12-23T17:28:23.165Z,5.07
2018-12-23T17:30:54.334Z,5.30
2018-12-23T17:33:21.769Z,5.90
2018-12-23T17:35:48.992Z,5.00
2018-12-23T17:38:16.215Z,5.40
2018-12-23T17:40:43.400Z,6.07
2018-12-23T17:43:10.592Z,5.00
2018-12-23T17:45:37.851Z,5.30
2018-12-23T17:48:05.197Z,4.80
2018-12-23T17:50:32.491Z,4.47
2018-12-23T17:52:59.733Z,4.63
2018-12-23T17:55:26.953Z,4.90
2018-12-23T17:57:54.170Z,5.87
2018-12-23T18:00:21.458Z,5.83
2018-12-23T18:02:48.653Z,5.13
2018-12-23T18:05:15.835Z,5.30
2018-12-23T18:07:43.075Z,5.20
2018-12-23T18:10:10.288Z,5.47
2018-12-23T18:12:37.489Z,5.23
2018-12-23T18:15:05.096Z,5.50
2018-12-23T18:17:32.412Z,4.13
2018-12-23T18:19:59.623Z,5.10
2018-12-23T18:22:26.857Z,4.27
2018-12-23T18:24:54.063Z,4.97
2018-12-23T18:27:21.262Z,4.30
2018-12-23T18:29:48.520Z,4.37
2018-12-23T18:32:15.720Z,3.40
2018-12-23T18:34:43.043Z,3.73
2018-12-23T18:37:10.269Z,4.40
2018-12-23T18:39:37.460Z,4.30
2018-12-23T18:42:04.718Z,4.60
2018-12-23T18:44:31.981Z,4.47
2018-12-23T18:46:59.269Z,4.87
2018-12-23T18:49:26.484Z,4.97
2018-12-23T18:51:53.828Z,3.83
2018-12-23T18:54:21.046Z,5.10
2018-12-23T18:56:50.380Z,4.60
2018-12-23T18:59:20.066Z,4.10
2018-12-23T19:01:58.116Z,4.20
2018-12-23T19:04:25.367Z,3.10
2018-12-23T19:06:52.690Z,3.67
2018-12-23T19:09:27.689Z,3.83
2018-12-23T19:12:06.609Z,2.77
2018-12-23T19:15:45.414Z,3.07
2018-12-23T19:20:30.805Z,2.57
2018-12-23T19:23:27.574Z,3.00
2018-12-23T19:26:42.409Z,2.23
2018-12-23T19:29:21.864Z,2.97
2018-12-23T19:32:04.476Z,2.33
2018-12-23T19:34:46.986Z,3.27
2018-12-23T19:37:40.308Z,3.87
2018-12-23T19:40:19.778Z,3.03
2018-12-23T19:43:08.028Z,3.23
2018-12-23T19:47:54.710Z,3.03
2018-12-23T19:50:35.936Z,2.03
2018-12-23T19:53:14.696Z,3.17
2018-12-23T19:55:53.810Z,3.10
2018-12-23T19:58:32.677Z,3.30
2018-12-23T20:01:08.606Z,2.73
2018-12-23T20:03:44.847Z,3.47
2018-12-23T20:08:34.498Z,2.80
2018-12-23T20:11:31.941Z,2.10
2018-12-23T20:15:13.127Z,1.57
2018-12-23T20:17:53.501Z,1.40
2018-12-23T20:21:40.560Z,1.60
2018-12-23T20:24:19.049Z,2.40
2018-12-23T20:27:57.285Z,2.07
2018-12-23T20:31:10.741Z,1.90
2018-12-23T20:34:21.013Z,1.50
2018-12-23T20:37:02.051Z,1.50
2018-12-23T20:40:05.346Z,1.43
2018-12-23T20:42:58.154Z,1.50
2018-12-23T20:45:57.717Z,1.40
2018-12-23T20:49:08.459Z,1.60
2018-12-23T20:52:13.169Z,1.63
2018-12-23T20:55:14.444Z,1.70
2018-12-23T20:58:08.694Z,1.77
2018-12-23T21:01:14.557Z,1.50
2018-12-23T21:04:28.444Z,1.20
2018-12-23T21:07:39.398Z,1.70
2018-12-23T21:10:48.619Z,1.80
2018-12-23T21:13:58.902Z,1.60
2018-12-23T21:16:43.955Z,1.73
2018-12-23T21:19:37.301Z,1.80
2018-12-23T21:22:36.415Z,1.90
2018-12-23T21:25:48.993Z,1.50
2018-12-23T21:28:56.489Z,1.60
2018-12-23T21:31:52.165Z,2.37
2018-12-23T21:34:54.924Z,1.90
2018-12-23T21:37:58.566Z,2.37
2018-12-23T21:41:11.987Z,2.17
2018-12-23T21:44:16.737Z,2.10
2018-12-23T21:47:21.457Z,2.30
2018-12-23T21:50:14.805Z,2.33
2018-12-23T21:53:11.491Z,2.20
2018-12-23T21:55:59.065Z,2.60
2018-12-23T21:58:56.379Z,2.13
2018-12-23T22:01:55.086Z,2.40
2018-12-23T22:04:41.226Z,2.40
2018-12-23T22:07:50.134Z,2.70
2018-12-23T22:10:35.104Z,2.40
2018-12-23T22:13:25.466Z,2.33
2018-12-23T22:15:52.746Z,2.53
2018-12-23T22:18:19.620Z,3.00
2018-12-23T22:20:46.459Z,2.30
2018-12-23T22:23:13.259Z,3.00
2018-12-23T22:25:40.101Z,2.53
2018-12-23T22:28:07.028Z,2.50
2018-12-23T22:30:33.937Z,3.23
2018-12-23T22:33:00.947Z,2.73
2018-12-23T22:35:27.907Z,2.57
2018-12-23T22:37:54.718Z,2.50
2018-12-23T22:40:21.544Z,2.10
2018-12-23T22:42:48.390Z,2.53
2018-12-23T22:45:15.193Z,2.63
2018-12-23T22:47:42.017Z,2.67
2018-12-23T22:50:08.868Z,2.30
2018-12-23T22:52:35.657Z,2.73
2018-12-23T22:55:02.493Z,2.80
2018-12-23T22:57:29.363Z,2.87
2018-12-23T22:59:56.171Z,2.70
2018-12-23T23:02:23.177Z,2.90
2018-12-23T23:04:51.624Z,2.43
2018-12-23T23:07:18.433Z,2.30
2018-12-23T23:09:45.345Z,3.03
2018-12-23T23:12:12.282Z,3.23
2018-12-23T23:14:39.090Z,2.90
2018-12-23T23:17:06.023Z,2.80
2018-12-23T23:19:33.146Z,2.80
2018-12-23T23:22:00.185Z,3.13
2018-12-23T23:24:27.007Z,2.83
2018-12-23T23:26:54.008Z,2.87
2018-12-23T23:29:21.178Z,2.87
2018-12-23T23:31:48.246Z,2.87
2018-12-23T23:34:15.121Z,2.53
2018-12-23T23:36:42.062Z,2.33
2018-12-23T23:39:09.180Z,2.07
2018-12-23T23:41:36.033Z,2.30
2018-12-23T23:44:03.041Z,2.13
2018-12-23T23:46:29.891Z,2.20
2018-12-23T23:48:56.744Z,1.67
2018-12-23T23:51:23.658Z,1.33
2018-12-23T23:53:50.474Z,1.77
2018-12-23T23:56:17.314Z,1.10
2018-12-23T23:58:44.129Z,1.33
